0PN7 weather

Drillmore Acres Airport
Newburg, Pennsylvania, United States

Public forecast

Using degrees Fahrenheit for public forecast. Weather courtesy of forecast.io.

METAR (pilot weather report)

Closest report is Hagerstown Regional Richard A Henson Field, 25.6 nm (47.5 km) S. Retrieved 2019/05/23 10:53 UTC (22 minutes ago):

KHGR 231053Z 17004KT 10SM FEW110 18/12 A3014 RMK AO2 SLP212 T01780117

TAF (pilot weather forecast)

Closest forecast is Altoona Blair County Airport, 33.1 nm (61.4 km) WNW. Retrieved 2019/05/23 06:42 UTC (5 hours ago):

TAF KAOO 230540Z 2306/2406 20005KT P6SM VCSH BKN090 FM231600 24011G18KT P6SM -SHRA BKN050 FM232100 26013G21KT P6SM VCSH BKN040 BKN250 FM240300 25008G15KT P6SM SCT250